sensor_id;sensor_type;location;lat;lon;timestamp;P1;durP1;ratioP1;P2;durP2;ratioP2
27495;SDS011;14929;51.336;9.416;2024-01-25T00:00:48;5.90;;;2.92;;
27495;SDS011;14929;51.336;9.416;2024-01-25T00:03:16;5.70;;;2.53;;
27495;SDS011;14929;51.336;9.416;2024-01-25T00:05:43;14.52;;;4.30;;
27495;SDS011;14929;51.336;9.416;2024-01-25T00:08:11;9.02;;;3.45;;
27495;SDS011;14929;51.336;9.416;2024-01-25T00:10:39;18.27;;;4.97;;
27495;SDS011;14929;51.336;9.416;2024-01-25T00:13:08;16.98;;;5.43;;
27495;SDS011;14929;51.336;9.416;2024-01-25T00:15:36;10.48;;;3.55;;
27495;SDS011;14929;51.336;9.416;2024-01-25T00:18:04;9.75;;;4.43;;
27495;SDS011;14929;51.336;9.416;2024-01-25T00:20:31;8.07;;;3.63;;
27495;SDS011;14929;51.336;9.416;2024-01-25T00:22:59;10.07;;;4.50;;
27495;SDS011;14929;51.336;9.416;2024-01-25T00:25:26;10.88;;;4.93;;
27495;SDS011;14929;51.336;9.416;2024-01-25T00:27:55;11.93;;;5.25;;
27495;SDS011;14929;51.336;9.416;2024-01-25T00:30:22;6.38;;;3.50;;
27495;SDS011;14929;51.336;9.416;2024-01-25T00:32:50;12.27;;;5.57;;
27495;SDS011;14929;51.336;9.416;2024-01-25T00:35:17;13.10;;;4.38;;
27495;SDS011;14929;51.336;9.416;2024-01-25T00:37:46;8.20;;;4.07;;
27495;SDS011;14929;51.336;9.416;2024-01-25T00:40:14;10.07;;;4.03;;
27495;SDS011;14929;51.336;9.416;2024-01-25T00:42:44;8.52;;;3.70;;
27495;SDS011;14929;51.336;9.416;2024-01-25T00:45:19;11.98;;;3.90;;
27495;SDS011;14929;51.336;9.416;2024-01-25T00:47:47;11.88;;;4.47;;
27495;SDS011;14929;51.336;9.416;2024-01-25T00:50:16;10.20;;;4.28;;
27495;SDS011;14929;51.336;9.416;2024-01-25T00:52:46;7.45;;;4.28;;
27495;SDS011;14929;51.336;9.416;2024-01-25T00:55:14;7.28;;;3.35;;
27495;SDS011;14929;51.336;9.416;2024-01-25T00:57:43;10.82;;;3.40;;
27495;SDS011;14929;51.336;9.416;2024-01-25T01:00:11;8.25;;;3.78;;
27495;SDS011;14929;51.336;9.416;2024-01-25T01:02:42;7.40;;;3.80;;
27495;SDS011;14929;51.336;9.416;2024-01-25T01:05:11;10.43;;;4.63;;
27495;SDS011;14929;51.336;9.416;2024-01-25T01:07:40;9.57;;;3.67;;
27495;SDS011;14929;51.336;9.416;2024-01-25T01:10:09;10.15;;;4.25;;
27495;SDS011;14929;51.336;9.416;2024-01-25T01:12:39;15.27;;;4.72;;
27495;SDS011;14929;51.336;9.416;2024-01-25T01:15:06;13.40;;;4.32;;
27495;SDS011;14929;51.336;9.416;2024-01-25T01:17:35;14.10;;;4.88;;
27495;SDS011;14929;51.336;9.416;2024-01-25T01:20:04;13.40;;;4.97;;
27495;SDS011;14929;51.336;9.416;2024-01-25T01:22:32;11.13;;;4.18;;
27495;SDS011;14929;51.336;9.416;2024-01-25T01:25:00;14.02;;;4.43;;
27495;SDS011;14929;51.336;9.416;2024-01-25T01:27:27;13.90;;;4.40;;
27495;SDS011;14929;51.336;9.416;2024-01-25T01:29:55;13.93;;;4.47;;
27495;SDS011;14929;51.336;9.416;2024-01-25T01:32:22;16.02;;;7.00;;
27495;SDS011;14929;51.336;9.416;2024-01-25T01:34:50;18.27;;;5.57;;
27495;SDS011;14929;51.336;9.416;2024-01-25T01:37:18;10.82;;;4.97;;
27495;SDS011;14929;51.336;9.416;2024-01-25T01:39:46;11.88;;;5.10;;
27495;SDS011;14929;51.336;9.416;2024-01-25T01:42:13;9.68;;;4.22;;
27495;SDS011;14929;51.336;9.416;2024-01-25T01:44:41;9.25;;;4.05;;
27495;SDS011;14929;51.336;9.416;2024-01-25T01:47:08;12.93;;;5.15;;
27495;SDS011;14929;51.336;9.416;2024-01-25T01:49:35;9.45;;;4.55;;
27495;SDS011;14929;51.336;9.416;2024-01-25T01:52:03;12.25;;;3.83;;
27495;SDS011;14929;51.336;9.416;2024-01-25T01:54:32;21.42;;;7.15;;
27495;SDS011;14929;51.336;9.416;2024-01-25T01:57:01;12.55;;;5.32;;
27495;SDS011;14929;51.336;9.416;2024-01-25T01:59:29;23.27;;;6.35;;
27495;SDS011;14929;51.336;9.416;2024-01-25T02:01:56;16.42;;;6.53;;
27495;SDS011;14929;51.336;9.416;2024-01-25T02:04:24;13.52;;;4.93;;
27495;SDS011;14929;51.336;9.416;2024-01-25T02:06:51;13.77;;;4.90;;
27495;SDS011;14929;51.336;9.416;2024-01-25T02:09:19;13.65;;;5.28;;
27495;SDS011;14929;51.336;9.416;2024-01-25T02:11:49;11.07;;;4.15;;
27495;SDS011;14929;51.336;9.416;2024-01-25T02:14:26;12.80;;;4.50;;
27495;SDS011;14929;51.336;9.416;2024-01-25T02:16:54;11.10;;;3.85;;
27495;SDS011;14929;51.336;9.416;2024-01-25T02:19:21;12.52;;;5.05;;
27495;SDS011;14929;51.336;9.416;2024-01-25T02:21:49;14.27;;;4.20;;
27495;SDS011;14929;51.336;9.416;2024-01-25T02:24:19;18.63;;;5.20;;
27495;SDS011;14929;51.336;9.416;2024-01-25T02:26:47;9.63;;;4.63;;
27495;SDS011;14929;51.336;9.416;2024-01-25T02:29:14;10.65;;;4.50;;
27495;SDS011;14929;51.336;9.416;2024-01-25T02:31:42;8.73;;;3.90;;
27495;SDS011;14929;51.336;9.416;2024-01-25T02:34:09;10.35;;;4.43;;
27495;SDS011;14929;51.336;9.416;2024-01-25T02:36:37;15.00;;;4.75;;
27495;SDS011;14929;51.336;9.416;2024-01-25T02:39:04;14.02;;;6.15;;
27495;SDS011;14929;51.336;9.416;2024-01-25T02:41:33;16.25;;;4.78;;
27495;SDS011;14929;51.336;9.416;2024-01-25T02:44:00;10.65;;;4.53;;
27495;SDS011;14929;51.336;9.416;2024-01-25T02:46:28;13.95;;;5.97;;
27495;SDS011;14929;51.336;9.416;2024-01-25T02:48:55;11.50;;;4.22;;
27495;SDS011;14929;51.336;9.416;2024-01-25T02:51:23;13.35;;;5.35;;
27495;SDS011;14929;51.336;9.416;2024-01-25T02:53:50;16.58;;;4.90;;
27495;SDS011;14929;51.336;9.416;2024-01-25T02:56:18;14.65;;;4.35;;
27495;SDS011;14929;51.336;9.416;2024-01-25T02:58:46;16.83;;;4.80;;
27495;SDS011;14929;51.336;9.416;2024-01-25T03:01:14;22.42;;;5.32;;
27495;SDS011;14929;51.336;9.416;2024-01-25T03:03:41;14.85;;;6.50;;
27495;SDS011;14929;51.336;9.416;2024-01-25T03:06:09;19.00;;;5.25;;
27495;SDS011;14929;51.336;9.416;2024-01-25T03:08:36;17.17;;;5.28;;
27495;SDS011;14929;51.336;9.416;2024-01-25T03:11:04;11.00;;;4.15;;
27495;SDS011;14929;51.336;9.416;2024-01-25T03:13:31;14.77;;;4.53;;
27495;SDS011;14929;51.336;9.416;2024-01-25T03:16:00;14.07;;;4.65;;
27495;SDS011;14929;51.336;9.416;2024-01-25T03:18:28;15.80;;;5.10;;
27495;SDS011;14929;51.336;9.416;2024-01-25T03:20:55;13.75;;;5.57;;
27495;SDS011;14929;51.336;9.416;2024-01-25T03:23:23;16.52;;;5.07;;
27495;SDS011;14929;51.336;9.416;2024-01-25T03:25:50;12.38;;;4.68;;
27495;SDS011;14929;51.336;9.416;2024-01-25T03:28:18;11.63;;;4.68;;
27495;SDS011;14929;51.336;9.416;2024-01-25T03:30:45;14.32;;;6.20;;
27495;SDS011;14929;51.336;9.416;2024-01-25T03:33:14;10.27;;;4.30;;
27495;SDS011;14929;51.336;9.416;2024-01-25T03:35:41;11.77;;;5.15;;
27495;SDS011;14929;51.336;9.416;2024-01-25T03:38:09;16.13;;;4.47;;
27495;SDS011;14929;51.336;9.416;2024-01-25T03:40:38;14.07;;;4.70;;
27495;SDS011;14929;51.336;9.416;2024-01-25T03:43:06;11.38;;;3.63;;
27495;SDS011;14929;51.336;9.416;2024-01-25T03:45:33;11.95;;;4.72;;
27495;SDS011;14929;51.336;9.416;2024-01-25T03:48:01;10.75;;;4.43;;
27495;SDS011;14929;51.336;9.416;2024-01-25T03:50:30;12.88;;;4.38;;
27495;SDS011;14929;51.336;9.416;2024-01-25T03:52:57;8.52;;;3.22;;
27495;SDS011;14929;51.336;9.416;2024-01-25T03:55:25;15.50;;;3.78;;
27495;SDS011;14929;51.336;9.416;2024-01-25T03:57:52;14.75;;;3.70;;
27495;SDS011;14929;51.336;9.416;2024-01-25T04:00:20;13.07;;;4.53;;
27495;SDS011;14929;51.336;9.416;2024-01-25T04:02:47;11.05;;;4.72;;
27495;SDS011;14929;51.336;9.416;2024-01-25T04:05:15;16.77;;;5.50;;
27495;SDS011;14929;51.336;9.416;2024-01-25T04:07:44;5.93;;;3.00;;
27495;SDS011;14929;51.336;9.416;2024-01-25T04:10:11;9.55;;;4.07;;
27495;SDS011;14929;51.336;9.416;2024-01-25T04:12:39;13.95;;;3.78;;
27495;SDS011;14929;51.336;9.416;2024-01-25T04:15:06;9.55;;;3.83;;
27495;SDS011;14929;51.336;9.416;2024-01-25T04:17:35;13.25;;;4.80;;
27495;SDS011;14929;51.336;9.416;2024-01-25T04:20:02;9.73;;;3.72;;
27495;SDS011;14929;51.336;9.416;2024-01-25T04:22:30;10.25;;;3.85;;
27495;SDS011;14929;51.336;9.416;2024-01-25T04:24:59;13.13;;;3.92;;
27495;SDS011;14929;51.336;9.416;2024-01-25T04:27:26;8.10;;;3.25;;
27495;SDS011;14929;51.336;9.416;2024-01-25T04:29:54;14.23;;;5.38;;
27495;SDS011;14929;51.336;9.416;2024-01-25T04:32:21;12.27;;;5.10;;
27495;SDS011;14929;51.336;9.416;2024-01-25T04:34:49;9.45;;;3.50;;
27495;SDS011;14929;51.336;9.416;2024-01-25T04:37:16;7.30;;;3.42;;
27495;SDS011;14929;51.336;9.416;2024-01-25T04:39:44;16.38;;;3.90;;
27495;SDS011;14929;51.336;9.416;2024-01-25T04:42:12;15.18;;;3.70;;
27495;SDS011;14929;51.336;9.416;2024-01-25T04:44:40;11.45;;;3.30;;
27495;SDS011;14929;51.336;9.416;2024-01-25T04:47:07;5.95;;;3.08;;
27495;SDS011;14929;51.336;9.416;2024-01-25T04:49:35;13.68;;;4.47;;
27495;SDS011;14929;51.336;9.416;2024-01-25T04:52:03;12.73;;;4.15;;
27495;SDS011;14929;51.336;9.416;2024-01-25T04:54:31;11.93;;;3.80;;
27495;SDS011;14929;51.336;9.416;2024-01-25T04:56:59;16.60;;;3.95;;
27495;SDS011;14929;51.336;9.416;2024-01-25T04:59:28;12.90;;;4.25;;
27495;SDS011;14929;51.336;9.416;2024-01-25T05:01:56;9.80;;;4.15;;
27495;SDS011;14929;51.336;9.416;2024-01-25T05:04:24;11.38;;;3.70;;
27495;SDS011;14929;51.336;9.416;2024-01-25T05:06:51;13.38;;;4.22;;
27495;SDS011;14929;51.336;9.416;2024-01-25T05:09:19;13.57;;;4.47;;
27495;SDS011;14929;51.336;9.416;2024-01-25T05:11:46;8.10;;;3.90;;
27495;SDS011;14929;51.336;9.416;2024-01-25T05:14:14;13.10;;;3.45;;
27495;SDS011;14929;51.336;9.416;2024-01-25T05:16:43;12.05;;;4.30;;
27495;SDS011;14929;51.336;9.416;2024-01-25T05:19:10;12.32;;;3.85;;
27495;SDS011;14929;51.336;9.416;2024-01-25T05:21:37;9.73;;;3.70;;
27495;SDS011;14929;51.336;9.416;2024-01-25T05:24:05;10.23;;;3.03;;
27495;SDS011;14929;51.336;9.416;2024-01-25T05:26:34;9.10;;;3.67;;
27495;SDS011;14929;51.336;9.416;2024-01-25T05:29:02;12.63;;;3.72;;
27495;SDS011;14929;51.336;9.416;2024-01-25T05:31:29;11.23;;;4.32;;
27495;SDS011;14929;51.336;9.416;2024-01-25T05:33:58;14.02;;;4.55;;
27495;SDS011;14929;51.336;9.416;2024-01-25T05:36:26;6.72;;;3.53;;
27495;SDS011;14929;51.336;9.416;2024-01-25T05:38:53;7.13;;;2.50;;
27495;SDS011;14929;51.336;9.416;2024-01-25T05:41:20;5.25;;;2.50;;
27495;SDS011;14929;51.336;9.416;2024-01-25T05:43:48;10.25;;;3.88;;
27495;SDS011;14929;51.336;9.416;2024-01-25T05:46:15;8.77;;;3.42;;
27495;SDS011;14929;51.336;9.416;2024-01-25T05:48:43;9.57;;;3.95;;
27495;SDS011;14929;51.336;9.416;2024-01-25T05:51:11;18.55;;;3.55;;
27495;SDS011;14929;51.336;9.416;2024-01-25T05:53:39;6.45;;;2.75;;
27495;SDS011;14929;51.336;9.416;2024-01-25T05:56:07;9.85;;;2.90;;
27495;SDS011;14929;51.336;9.416;2024-01-25T05:58:34;7.88;;;3.13;;
27495;SDS011;14929;51.336;9.416;2024-01-25T06:01:02;12.48;;;4.95;;
27495;SDS011;14929;51.336;9.416;2024-01-25T06:03:30;11.85;;;3.20;;
27495;SDS011;14929;51.336;9.416;2024-01-25T06:05:58;9.27;;;3.53;;
27495;SDS011;14929;51.336;9.416;2024-01-25T06:08:26;13.88;;;4.15;;
27495;SDS011;14929;51.336;9.416;2024-01-25T06:10:54;11.63;;;4.20;;
27495;SDS011;14929;51.336;9.416;2024-01-25T06:13:21;9.45;;;3.33;;
27495;SDS011;14929;51.336;9.416;2024-01-25T06:15:49;11.93;;;3.67;;
27495;SDS011;14929;51.336;9.416;2024-01-25T06:18:16;16.33;;;3.45;;
27495;SDS011;14929;51.336;9.416;2024-01-25T06:20:43;9.45;;;3.72;;
27495;SDS011;14929;51.336;9.416;2024-01-25T06:23:11;6.75;;;3.10;;
27495;SDS011;14929;51.336;9.416;2024-01-25T06:25:40;7.70;;;3.20;;
27495;SDS011;14929;51.336;9.416;2024-01-25T06:28:07;6.22;;;3.13;;
27495;SDS011;14929;51.336;9.416;2024-01-25T06:30:35;8.55;;;3.00;;
27495;SDS011;14929;51.336;9.416;2024-01-25T06:33:02;10.65;;;3.10;;
27495;SDS011;14929;51.336;9.416;2024-01-25T06:35:30;11.15;;;3.50;;
27495;SDS011;14929;51.336;9.416;2024-01-25T06:37:59;5.95;;;2.78;;
27495;SDS011;14929;51.336;9.416;2024-01-25T06:40:26;10.38;;;3.90;;
27495;SDS011;14929;51.336;9.416;2024-01-25T06:42:55;11.82;;;2.92;;
27495;SDS011;14929;51.336;9.416;2024-01-25T06:45:22;8.93;;;2.90;;
27495;SDS011;14929;51.336;9.416;2024-01-25T06:47:50;8.57;;;2.67;;
27495;SDS011;14929;51.336;9.416;2024-01-25T06:50:17;9.88;;;4.07;;
27495;SDS011;14929;51.336;9.416;2024-01-25T06:52:45;11.52;;;4.63;;
27495;SDS011;14929;51.336;9.416;2024-01-25T06:55:13;10.73;;;3.67;;
27495;SDS011;14929;51.336;9.416;2024-01-25T06:57:41;9.05;;;3.85;;
27495;SDS011;14929;51.336;9.416;2024-01-25T07:00:10;12.80;;;3.67;;
27495;SDS011;14929;51.336;9.416;2024-01-25T07:02:40;14.10;;;3.65;;
27495;SDS011;14929;51.336;9.416;2024-01-25T07:05:08;13.15;;;4.07;;
27495;SDS011;14929;51.336;9.416;2024-01-25T07:07:35;13.80;;;4.70;;
27495;SDS011;14929;51.336;9.416;2024-01-25T07:10:05;6.65;;;2.35;;
27495;SDS011;14929;51.336;9.416;2024-01-25T07:12:33;6.88;;;3.17;;
27495;SDS011;14929;51.336;9.416;2024-01-25T07:15:00;12.85;;;3.60;;
27495;SDS011;14929;51.336;9.416;2024-01-25T07:17:29;8.55;;;3.97;;
27495;SDS011;14929;51.336;9.416;2024-01-25T07:19:57;9.20;;;3.67;;
27495;SDS011;14929;51.336;9.416;2024-01-25T07:22:24;14.60;;;4.40;;
27495;SDS011;14929;51.336;9.416;2024-01-25T07:24:52;6.88;;;2.67;;
27495;SDS011;14929;51.336;9.416;2024-01-25T07:27:19;6.00;;;2.83;;
27495;SDS011;14929;51.336;9.416;2024-01-25T07:29:47;7.68;;;2.97;;
27495;SDS011;14929;51.336;9.416;2024-01-25T07:32:14;12.80;;;3.47;;
27495;SDS011;14929;51.336;9.416;2024-01-25T07:34:45;10.50;;;3.22;;
27495;SDS011;14929;51.336;9.416;2024-01-25T07:37:12;8.95;;;3.65;;
27495;SDS011;14929;51.336;9.416;2024-01-25T07:39:41;10.00;;;3.15;;
27495;SDS011;14929;51.336;9.416;2024-01-25T07:42:08;10.30;;;4.15;;
27495;SDS011;14929;51.336;9.416;2024-01-25T07:44:35;13.13;;;3.92;;
27495;SDS011;14929;51.336;9.416;2024-01-25T07:47:03;6.00;;;2.95;;
27495;SDS011;14929;51.336;9.416;2024-01-25T07:49:30;11.88;;;6.97;;
27495;SDS011;14929;51.336;9.416;2024-01-25T07:51:59;9.60;;;3.47;;
27495;SDS011;14929;51.336;9.416;2024-01-25T07:54:27;6.90;;;3.45;;
27495;SDS011;14929;51.336;9.416;2024-01-25T07:56:54;16.50;;;4.38;;
27495;SDS011;14929;51.336;9.416;2024-01-25T07:59:21;9.00;;;3.47;;
27495;SDS011;14929;51.336;9.416;2024-01-25T08:01:49;5.70;;;2.85;;
27495;SDS011;14929;51.336;9.416;2024-01-25T08:04:16;9.43;;;5.45;;
27495;SDS011;14929;51.336;9.416;2024-01-25T08:06:44;8.13;;;3.65;;
27495;SDS011;14929;51.336;9.416;2024-01-25T08:09:12;6.60;;;2.60;;
27495;SDS011;14929;51.336;9.416;2024-01-25T08:11:41;5.40;;;3.40;;
27495;SDS011;14929;51.336;9.416;2024-01-25T08:14:08;9.07;;;3.45;;
27495;SDS011;14929;51.336;9.416;2024-01-25T08:16:36;5.80;;;2.65;;
27495;SDS011;14929;51.336;9.416;2024-01-25T08:19:03;11.85;;;3.58;;
27495;SDS011;14929;51.336;9.416;2024-01-25T08:21:31;3.35;;;2.03;;
27495;SDS011;14929;51.336;9.416;2024-01-25T08:24:00;4.32;;;2.22;;
27495;SDS011;14929;51.336;9.416;2024-01-25T08:26:30;5.57;;;2.10;;
27495;SDS011;14929;51.336;9.416;2024-01-25T08:28:58;7.00;;;2.53;;
27495;SDS011;14929;51.336;9.416;2024-01-25T08:31:25;4.03;;;2.08;;
27495;SDS011;14929;51.336;9.416;2024-01-25T08:33:53;5.43;;;2.72;;
27495;SDS011;14929;51.336;9.416;2024-01-25T08:36:20;6.47;;;2.40;;
27495;SDS011;14929;51.336;9.416;2024-01-25T08:38:49;7.50;;;3.30;;
27495;SDS011;14929;51.336;9.416;2024-01-25T08:41:17;6.90;;;2.72;;
27495;SDS011;14929;51.336;9.416;2024-01-25T08:43:45;7.13;;;3.22;;
27495;SDS011;14929;51.336;9.416;2024-01-25T08:46:13;7.82;;;3.83;;
27495;SDS011;14929;51.336;9.416;2024-01-25T08:48:41;13.45;;;3.70;;
27495;SDS011;14929;51.336;9.416;2024-01-25T08:51:09;13.07;;;3.40;;
27495;SDS011;14929;51.336;9.416;2024-01-25T08:53:36;9.13;;;5.32;;
27495;SDS011;14929;51.336;9.416;2024-01-25T08:56:04;10.73;;;3.17;;
27495;SDS011;14929;51.336;9.416;2024-01-25T08:58:32;10.48;;;4.68;;
27495;SDS011;14929;51.336;9.416;2024-01-25T09:01:01;7.90;;;3.35;;
27495;SDS011;14929;51.336;9.416;2024-01-25T09:03:28;7.93;;;3.50;;
27495;SDS011;14929;51.336;9.416;2024-01-25T09:05:56;8.73;;;2.83;;
27495;SDS011;14929;51.336;9.416;2024-01-25T09:08:23;8.25;;;3.65;;
27495;SDS011;14929;51.336;9.416;2024-01-25T09:10:50;8.52;;;3.45;;
27495;SDS011;14929;51.336;9.416;2024-01-25T09:13:18;15.07;;;4.57;;
27495;SDS011;14929;51.336;9.416;2024-01-25T09:15:45;9.95;;;3.03;;
27495;SDS011;14929;51.336;9.416;2024-01-25T09:18:14;8.23;;;3.67;;
27495;SDS011;14929;51.336;9.416;2024-01-25T09:20:41;6.00;;;3.55;;
27495;SDS011;14929;51.336;9.416;2024-01-25T09:23:12;11.73;;;3.33;;
27495;SDS011;14929;51.336;9.416;2024-01-25T09:25:41;5.68;;;3.30;;
27495;SDS011;14929;51.336;9.416;2024-01-25T09:28:09;11.93;;;4.30;;
27495;SDS011;14929;51.336;9.416;2024-01-25T09:30:37;8.95;;;3.10;;
27495;SDS011;14929;51.336;9.416;2024-01-25T09:33:05;10.10;;;4.32;;
27495;SDS011;14929;51.336;9.416;2024-01-25T09:35:34;9.23;;;4.00;;
27495;SDS011;14929;51.336;9.416;2024-01-25T09:38:01;10.73;;;3.92;;
27495;SDS011;14929;51.336;9.416;2024-01-25T09:40:29;11.48;;;3.50;;
27495;SDS011;14929;51.336;9.416;2024-01-25T09:42:58;12.27;;;4.70;;
27495;SDS011;14929;51.336;9.416;2024-01-25T09:45:25;10.15;;;4.05;;
27495;SDS011;14929;51.336;9.416;2024-01-25T09:47:53;12.05;;;3.95;;
27495;SDS011;14929;51.336;9.416;2024-01-25T09:50:20;9.00;;;3.10;;
27495;SDS011;14929;51.336;9.416;2024-01-25T09:52:53;7.40;;;3.95;;
27495;SDS011;14929;51.336;9.416;2024-01-25T09:55:22;10.65;;;3.95;;
27495;SDS011;14929;51.336;9.416;2024-01-25T09:57:53;9.63;;;5.45;;
27495;SDS011;14929;51.336;9.416;2024-01-25T10:00:21;11.77;;;6.40;;
27495;SDS011;14929;51.336;9.416;2024-01-25T10:02:49;11.18;;;4.13;;
27495;SDS011;14929;51.336;9.416;2024-01-25T10:05:17;7.90;;;3.53;;
27495;SDS011;14929;51.336;9.416;2024-01-25T10:07:45;11.95;;;3.92;;
27495;SDS011;14929;51.336;9.416;2024-01-25T10:10:14;12.63;;;3.42;;
27495;SDS011;14929;51.336;9.416;2024-01-25T10:12:42;7.43;;;3.33;;
27495;SDS011;14929;51.336;9.416;2024-01-25T10:15:10;7.63;;;3.30;;
27495;SDS011;14929;51.336;9.416;2024-01-25T10:17:38;10.77;;;4.07;;
27495;SDS011;14929;51.336;9.416;2024-01-25T10:20:06;7.43;;;2.90;;
27495;SDS011;14929;51.336;9.416;2024-01-25T10:22:36;8.50;;;4.10;;
27495;SDS011;14929;51.336;9.416;2024-01-25T10:25:06;8.57;;;3.92;;
27495;SDS011;14929;51.336;9.416;2024-01-25T10:27:41;5.45;;;2.72;;
27495;SDS011;14929;51.336;9.416;2024-01-25T10:30:09;8.38;;;3.75;;
27495;SDS011;14929;51.336;9.416;2024-01-25T10:32:38;7.85;;;3.60;;
27495;SDS011;14929;51.336;9.416;2024-01-25T10:35:06;14.52;;;4.03;;
27495;SDS011;14929;51.336;9.416;2024-01-25T10:37:36;7.90;;;2.72;;
27495;SDS011;14929;51.336;9.416;2024-01-25T10:40:05;11.60;;;3.53;;
27495;SDS011;14929;51.336;9.416;2024-01-25T10:42:37;7.78;;;2.65;;
27495;SDS011;14929;51.336;9.416;2024-01-25T10:45:06;4.60;;;2.38;;
27495;SDS011;14929;51.336;9.416;2024-01-25T10:47:35;6.50;;;3.03;;
27495;SDS011;14929;51.336;9.416;2024-01-25T10:50:06;5.43;;;2.63;;
27495;SDS011;14929;51.336;9.416;2024-01-25T10:52:34;6.63;;;3.33;;
27495;SDS011;14929;51.336;9.416;2024-01-25T10:55:03;6.25;;;2.92;;
27495;SDS011;14929;51.336;9.416;2024-01-25T10:57:34;7.95;;;2.53;;
27495;SDS011;14929;51.336;9.416;2024-01-25T11:00:04;5.88;;;2.80;;
27495;SDS011;14929;51.336;9.416;2024-01-25T11:02:36;5.30;;;2.50;;
27495;SDS011;14929;51.336;9.416;2024-01-25T11:05:06;4.93;;;2.35;;
27495;SDS011;14929;51.336;9.416;2024-01-25T11:07:42;7.65;;;2.83;;
27495;SDS011;14929;51.336;9.416;2024-01-25T11:10:12;4.68;;;2.30;;
27495;SDS011;14929;51.336;9.416;2024-01-25T11:12:49;15.40;;;2.85;;
27495;SDS011;14929;51.336;9.416;2024-01-25T11:15:21;5.93;;;2.58;;
27495;SDS011;14929;51.336;9.416;2024-01-25T11:17:55;8.38;;;3.00;;
27495;SDS011;14929;51.336;9.416;2024-01-25T11:20:24;6.40;;;3.03;;
27495;SDS011;14929;51.336;9.416;2024-01-25T11:22:56;6.53;;;3.80;;
27495;SDS011;14929;51.336;9.416;2024-01-25T11:25:27;11.57;;;4.13;;
27495;SDS011;14929;51.336;9.416;2024-01-25T11:27:55;5.13;;;3.13;;
27495;SDS011;14929;51.336;9.416;2024-01-25T11:30:24;6.97;;;3.10;;
27495;SDS011;14929;51.336;9.416;2024-01-25T11:32:53;7.07;;;3.90;;
27495;SDS011;14929;51.336;9.416;2024-01-25T11:35:21;9.43;;;3.63;;
27495;SDS011;14929;51.336;9.416;2024-01-25T11:37:49;7.00;;;2.78;;
27495;SDS011;14929;51.336;9.416;2024-01-25T11:40:17;6.80;;;2.63;;
27495;SDS011;14929;51.336;9.416;2024-01-25T11:42:46;24.15;;;3.08;;
27495;SDS011;14929;51.336;9.416;2024-01-25T11:45:15;8.60;;;3.15;;
27495;SDS011;14929;51.336;9.416;2024-01-25T11:47:45;3.92;;;2.22;;
27495;SDS011;14929;51.336;9.416;2024-01-25T11:50:12;5.15;;;2.83;;
27495;SDS011;14929;51.336;9.416;2024-01-25T11:52:40;8.27;;;3.08;;
27495;SDS011;14929;51.336;9.416;2024-01-25T11:55:08;5.15;;;2.90;;
27495;SDS011;14929;51.336;9.416;2024-01-25T11:57:37;2.90;;;1.98;;
27495;SDS011;14929;51.336;9.416;2024-01-25T12:00:07;13.25;;;3.47;;
27495;SDS011;14929;51.336;9.416;2024-01-25T12:02:36;4.32;;;2.38;;
27495;SDS011;14929;51.336;9.416;2024-01-25T12:05:06;6.05;;;2.22;;
27495;SDS011;14929;51.336;9.416;2024-01-25T12:07:34;7.10;;;3.10;;
27495;SDS011;14929;51.336;9.416;2024-01-25T12:10:02;6.20;;;2.63;;
27495;SDS011;14929;51.336;9.416;2024-01-25T12:12:32;4.97;;;2.97;;
27495;SDS011;14929;51.336;9.416;2024-01-25T12:15:01;10.95;;;3.33;;
27495;SDS011;14929;51.336;9.416;2024-01-25T12:17:32;5.53;;;2.67;;
27495;SDS011;14929;51.336;9.416;2024-01-25T12:20:01;4.63;;;2.70;;
27495;SDS011;14929;51.336;9.416;2024-01-25T12:22:37;7.53;;;2.92;;
27495;SDS011;14929;51.336;9.416;2024-01-25T12:25:06;6.30;;;2.60;;
27495;SDS011;14929;51.336;9.416;2024-01-25T12:27:35;6.03;;;2.45;;
27495;SDS011;14929;51.336;9.416;2024-01-25T12:30:03;4.40;;;2.65;;
27495;SDS011;14929;51.336;9.416;2024-01-25T12:32:33;6.50;;;2.80;;
27495;SDS011;14929;51.336;9.416;2024-01-25T12:35:00;5.25;;;2.22;;
27495;SDS011;14929;51.336;9.416;2024-01-25T12:37:28;7.32;;;3.13;;
27495;SDS011;14929;51.336;9.416;2024-01-25T12:39:57;6.93;;;2.40;;
27495;SDS011;14929;51.336;9.416;2024-01-25T12:42:25;4.95;;;2.33;;
27495;SDS011;14929;51.336;9.416;2024-01-25T12:44:53;4.38;;;2.35;;
27495;SDS011;14929;51.336;9.416;2024-01-25T12:47:20;4.93;;;2.67;;
27495;SDS011;14929;51.336;9.416;2024-01-25T12:49:48;4.93;;;2.28;;
27495;SDS011;14929;51.336;9.416;2024-01-25T12:52:15;5.13;;;1.90;;
27495;SDS011;14929;51.336;9.416;2024-01-25T12:54:43;3.25;;;2.40;;
27495;SDS011;14929;51.336;9.416;2024-01-25T12:57:12;5.05;;;2.55;;
27495;SDS011;14929;51.336;9.416;2024-01-25T12:59:39;3.35;;;1.95;;
27495;SDS011;14929;51.336;9.416;2024-01-25T13:02:07;4.78;;;1.80;;
27495;SDS011;14929;51.336;9.416;2024-01-25T13:04:35;5.65;;;2.17;;
27495;SDS011;14929;51.336;9.416;2024-01-25T13:07:02;5.82;;;2.25;;
27495;SDS011;14929;51.336;9.416;2024-01-25T13:09:30;5.50;;;2.72;;
27495;SDS011;14929;51.336;9.416;2024-01-25T13:11:59;5.07;;;2.65;;
27495;SDS011;14929;51.336;9.416;2024-01-25T13:14:28;6.13;;;2.17;;
27495;SDS011;14929;51.336;9.416;2024-01-25T13:16:55;3.78;;;1.95;;
27495;SDS011;14929;51.336;9.416;2024-01-25T13:19:23;5.07;;;2.83;;
27495;SDS011;14929;51.336;9.416;2024-01-25T13:21:51;4.38;;;2.40;;
27495;SDS011;14929;51.336;9.416;2024-01-25T13:24:19;5.55;;;2.22;;
27495;SDS011;14929;51.336;9.416;2024-01-25T13:26:46;3.95;;;1.92;;
27495;SDS011;14929;51.336;9.416;2024-01-25T13:29:14;2.15;;;1.55;;
27495;SDS011;14929;51.336;9.416;2024-01-25T13:31:42;3.80;;;1.65;;
27495;SDS011;14929;51.336;9.416;2024-01-25T13:34:10;5.13;;;2.63;;
27495;SDS011;14929;51.336;9.416;2024-01-25T13:36:37;4.50;;;1.83;;
27495;SDS011;14929;51.336;9.416;2024-01-25T13:39:05;2.63;;;1.60;;
27495;SDS011;14929;51.336;9.416;2024-01-25T13:41:34;3.35;;;1.90;;
27495;SDS011;14929;51.336;9.416;2024-01-25T13:44:01;6.63;;;2.05;;
27495;SDS011;14929;51.336;9.416;2024-01-25T13:46:29;4.45;;;1.70;;
27495;SDS011;14929;51.336;9.416;2024-01-25T13:48:58;7.95;;;2.17;;
27495;SDS011;14929;51.336;9.416;2024-01-25T13:51:25;2.70;;;2.15;;
27495;SDS011;14929;51.336;9.416;2024-01-25T13:53:53;3.83;;;1.92;;
27495;SDS011;14929;51.336;9.416;2024-01-25T13:56:20;5.30;;;2.28;;
27495;SDS011;14929;51.336;9.416;2024-01-25T13:58:47;4.53;;;2.50;;
27495;SDS011;14929;51.336;9.416;2024-01-25T14:01:15;2.00;;;1.90;;
27495;SDS011;14929;51.336;9.416;2024-01-25T14:03:42;1.95;;;1.40;;
27495;SDS011;14929;51.336;9.416;2024-01-25T14:06:11;1.67;;;1.58;;
27495;SDS011;14929;51.336;9.416;2024-01-25T14:08:39;2.05;;;1.30;;
27495;SDS011;14929;51.336;9.416;2024-01-25T14:11:06;2.55;;;1.90;;
27495;SDS011;14929;51.336;9.416;2024-01-25T14:13:35;4.40;;;1.40;;
27495;SDS011;14929;51.336;9.416;2024-01-25T14:16:02;3.10;;;1.67;;
27495;SDS011;14929;51.336;9.416;2024-01-25T14:18:35;2.50;;;1.48;;
27495;SDS011;14929;51.336;9.416;2024-01-25T14:21:05;2.10;;;1.48;;
27495;SDS011;14929;51.336;9.416;2024-01-25T14:23:34;4.25;;;1.92;;
27495;SDS011;14929;51.336;9.416;2024-01-25T14:26:01;8.68;;;3.03;;
27495;SDS011;14929;51.336;9.416;2024-01-25T14:28:29;2.92;;;1.75;;
27495;SDS011;14929;51.336;9.416;2024-01-25T14:30:56;3.85;;;2.80;;
27495;SDS011;14929;51.336;9.416;2024-01-25T14:33:24;1.85;;;1.50;;
27495;SDS011;14929;51.336;9.416;2024-01-25T14:35:51;4.13;;;1.70;;
27495;SDS011;14929;51.336;9.416;2024-01-25T14:38:18;6.63;;;2.72;;
27495;SDS011;14929;51.336;9.416;2024-01-25T14:40:47;5.22;;;2.38;;
27495;SDS011;14929;51.336;9.416;2024-01-25T14:43:15;7.68;;;3.10;;
27495;SDS011;14929;51.336;9.416;2024-01-25T14:45:43;4.50;;;2.35;;